createdAt,value
2024-05-09T00:00:42.998Z,22.15
2024-05-09T00:03:12.832Z,22.63
2024-05-09T00:05:43.348Z,21.95
2024-05-09T00:08:16.609Z,22.38
2024-05-09T00:10:46.491Z,21.83
2024-05-09T00:13:16.239Z,21.55
2024-05-09T00:15:45.890Z,23.00
2024-05-09T00:18:15.721Z,22.23
2024-05-09T00:20:45.548Z,21.75
2024-05-09T00:23:17.876Z,22.70
2024-05-09T00:25:48.045Z,23.13
2024-05-09T00:28:17.743Z,22.27
2024-05-09T00:30:47.418Z,23.08
2024-05-09T00:33:17.406Z,23.80
2024-05-09T00:35:47.256Z,23.52
2024-05-09T00:38:19.553Z,23.65
2024-05-09T00:40:49.406Z,23.30
2024-05-09T00:43:19.095Z,22.88
2024-05-09T00:45:49.122Z,22.65
2024-05-09T00:48:21.310Z,22.15
2024-05-09T00:50:54.037Z,22.48
2024-05-09T00:53:26.875Z,22.42
2024-05-09T00:55:57.223Z,24.50
2024-05-09T00:58:27.462Z,23.47
2024-05-09T01:00:58.813Z,22.90
2024-05-09T01:03:29.540Z,24.58
2024-05-09T01:05:59.533Z,24.35
2024-05-09T01:08:31.996Z,23.50
2024-05-09T01:11:01.921Z,23.67
2024-05-09T01:13:31.673Z,23.05
2024-05-09T01:16:01.415Z,23.63
2024-05-09T01:18:31.379Z,22.67
2024-05-09T01:21:01.188Z,22.40
2024-05-09T01:23:33.758Z,22.80
2024-05-09T01:26:03.555Z,23.35
2024-05-09T01:28:33.205Z,23.73
2024-05-09T01:31:02.930Z,23.50
2024-05-09T01:33:32.978Z,23.83
2024-05-09T01:36:02.967Z,23.98
2024-05-09T01:38:35.318Z,25.50
2024-05-09T01:41:05.202Z,24.20
2024-05-09T01:43:34.842Z,25.67
2024-05-09T01:46:04.489Z,24.70
2024-05-09T01:48:34.234Z,24.83
2024-05-09T01:51:03.987Z,25.23
2024-05-09T01:53:36.405Z,25.02
2024-05-09T01:56:06.428Z,24.85
2024-05-09T01:58:36.157Z,23.98
2024-05-09T02:01:05.924Z,25.60
2024-05-09T02:03:35.693Z,25.45
2024-05-09T02:06:05.676Z,26.95
2024-05-09T02:08:38.192Z,24.35
2024-05-09T02:11:08.901Z,26.25
2024-05-09T02:13:38.708Z,25.30
2024-05-09T02:16:12.031Z,25.52
2024-05-09T02:18:41.947Z,26.33
2024-05-09T02:21:11.850Z,26.70
2024-05-09T02:23:44.224Z,24.85
2024-05-09T02:26:14.009Z,25.02
2024-05-09T02:28:43.705Z,26.48
2024-05-09T02:31:14.168Z,25.90
2024-05-09T02:33:43.958Z,26.23
2024-05-09T02:36:13.727Z,26.10
2024-05-09T02:38:43.475Z,26.35
2024-05-09T02:41:13.299Z,25.35
2024-05-09T02:43:40.434Z,26.10
2024-05-09T02:46:10.084Z,25.10
2024-05-09T02:48:37.386Z,25.08
2024-05-09T02:51:07.470Z,25.35
2024-05-09T02:53:34.796Z,27.35
2024-05-09T02:56:07.556Z,24.58
2024-05-09T02:58:34.673Z,24.65
2024-05-09T03:01:04.813Z,25.00
2024-05-09T03:03:32.134Z,24.48
2024-05-09T03:06:01.913Z,24.55
2024-05-09T03:08:29.081Z,24.63
2024-05-09T03:10:58.861Z,24.02
2024-05-09T03:13:28.607Z,24.30
2024-05-09T03:15:58.292Z,24.35
2024-05-09T03:18:25.459Z,25.48
2024-05-09T03:20:55.192Z,24.67
2024-05-09T03:23:22.305Z,24.25
2024-05-09T03:25:54.272Z,24.48
2024-05-09T03:28:21.398Z,22.70
2024-05-09T03:30:53.669Z,21.27
2024-05-09T03:33:21.316Z,20.05
2024-05-09T03:35:51.322Z,22.60
2024-05-09T03:38:21.034Z,22.05
2024-05-09T03:40:51.605Z,24.17
2024-05-09T03:43:19.169Z,24.75
2024-05-09T03:45:53.214Z,23.20
2024-05-09T03:48:20.545Z,23.67
2024-05-09T03:50:50.776Z,23.98
2024-05-09T03:53:17.979Z,24.42
2024-05-09T03:55:50.031Z,23.13
2024-05-09T03:58:17.127Z,23.58
2024-05-09T04:00:46.879Z,22.55
2024-05-09T04:03:18.634Z,21.88
2024-05-09T04:08:45.647Z,23.88
2024-05-09T04:11:15.376Z,24.25
2024-05-09T04:13:43.230Z,23.25
2024-05-09T04:16:13.503Z,23.25
2024-05-09T04:18:43.257Z,23.45
2024-05-09T04:21:13.017Z,25.50
2024-05-09T04:23:40.144Z,25.08
2024-05-09T04:26:10.224Z,24.95
2024-05-09T04:28:37.258Z,23.88
2024-05-09T04:31:07.065Z,23.45
2024-05-09T04:33:34.762Z,22.63
2024-05-09T04:36:07.478Z,19.27
2024-05-09T04:38:34.691Z,21.60
2024-05-09T04:41:04.524Z,21.33
2024-05-09T04:43:31.632Z,21.20
2024-05-09T04:46:01.415Z,21.98
2024-05-09T04:48:28.777Z,20.77
2024-05-09T04:50:58.629Z,21.27
2024-05-09T04:53:29.332Z,21.40
2024-05-09T04:55:59.103Z,21.95
2024-05-09T04:58:26.203Z,23.90
2024-05-09T05:00:56.669Z,22.58
2024-05-09T05:03:23.985Z,24.23
2024-05-09T05:05:53.720Z,22.55
2024-05-09T05:08:21.095Z,23.20
2024-05-09T05:10:53.476Z,24.02
2024-05-09T05:13:22.239Z,23.23
2024-05-09T05:15:56.912Z,23.92
2024-05-09T05:18:25.858Z,22.98
2024-05-09T05:20:55.968Z,23.40
2024-05-09T05:23:23.756Z,23.95
2024-05-09T05:25:59.283Z,24.02
2024-05-09T05:28:26.405Z,25.17
2024-05-09T05:30:56.096Z,24.52
2024-05-09T05:33:23.664Z,24.33
2024-05-09T05:35:53.477Z,25.75
2024-05-09T05:38:23.874Z,23.92
2024-05-09T05:40:56.042Z,25.70
2024-05-09T05:43:25.781Z,25.33
2024-05-09T05:45:55.618Z,24.60
2024-05-09T05:48:22.953Z,25.50
2024-05-09T05:50:52.834Z,24.98
2024-05-09T05:53:20.046Z,25.23
2024-05-09T05:55:49.821Z,25.35
2024-05-09T05:58:16.879Z,27.17
2024-05-09T06:00:49.241Z,27.23
2024-05-09T06:03:16.457Z,27.05
2024-05-09T06:05:46.611Z,26.63
2024-05-09T06:08:14.353Z,25.55
2024-05-09T06:10:44.274Z,26.63
2024-05-09T06:13:13.219Z,26.70
2024-05-09T06:15:44.066Z,25.92
2024-05-09T06:18:14.387Z,27.42
2024-05-09T06:20:44.650Z,26.57
2024-05-09T06:23:12.511Z,26.80
2024-05-09T06:25:43.915Z,25.92
2024-05-09T06:28:11.314Z,27.02
2024-05-09T06:30:42.629Z,26.38
2024-05-09T06:33:12.906Z,26.65
2024-05-09T06:35:47.308Z,27.30
2024-05-09T06:38:14.641Z,27.67
2024-05-09T06:40:44.832Z,28.50
2024-05-09T06:43:12.422Z,28.35
2024-05-09T06:45:42.160Z,28.98
2024-05-09T06:48:10.152Z,28.08
2024-05-09T06:50:40.623Z,27.27
2024-05-09T06:53:10.673Z,28.15
2024-05-09T06:55:40.406Z,27.75
2024-05-09T06:58:09.125Z,27.42
2024-05-09T07:00:41.120Z,26.90
2024-05-09T07:03:10.095Z,26.77
2024-05-09T07:05:40.552Z,25.90
2024-05-09T07:08:10.507Z,25.65
2024-05-09T07:10:40.280Z,25.98
2024-05-09T07:13:10.704Z,23.50
2024-05-09T07:15:41.600Z,24.88
2024-05-09T07:18:10.429Z,23.33
2024-05-09T07:20:40.807Z,22.30
2024-05-09T07:23:11.792Z,22.40
2024-05-09T07:25:42.131Z,20.55
2024-05-09T07:28:10.447Z,20.50
2024-05-09T07:30:40.080Z,19.40
2024-05-09T07:33:07.304Z,20.13
2024-05-09T07:35:37.421Z,20.13
2024-05-09T07:38:04.935Z,19.08
2024-05-09T07:40:38.518Z,19.27
2024-05-09T07:43:06.637Z,19.15
2024-05-09T07:53:37.013Z,17.40
2024-05-09T07:56:02.014Z,17.65
2024-05-09T07:58:29.140Z,17.20
2024-05-09T08:00:58.840Z,16.98
2024-05-09T08:03:25.980Z,15.48
2024-05-09T08:05:55.986Z,15.60
2024-05-09T08:08:23.134Z,15.65
2024-05-09T08:10:53.059Z,15.05
2024-05-09T08:13:23.039Z,15.18
2024-05-09T08:15:52.991Z,13.43
2024-05-09T08:18:20.297Z,13.85
2024-05-09T08:20:50.851Z,13.85
2024-05-09T08:23:17.932Z,13.70
2024-05-09T08:25:47.988Z,14.02
2024-05-09T08:28:15.322Z,14.35
2024-05-09T08:30:48.274Z,13.45
2024-05-09T08:33:15.634Z,12.95
2024-05-09T08:35:45.421Z,13.10
2024-05-09T08:38:12.516Z,12.02
2024-05-09T08:40:42.489Z,12.13
2024-05-09T08:43:11.874Z,11.88
2024-05-09T08:45:44.574Z,12.23
2024-05-09T08:48:16.649Z,11.25
2024-05-09T08:50:46.672Z,10.93
2024-05-09T08:53:14.686Z,10.77
2024-05-09T08:55:44.850Z,9.70
2024-05-09T08:58:14.178Z,11.23
2024-05-09T09:00:45.323Z,10.70
2024-05-09T09:03:17.378Z,10.13
2024-05-09T09:05:50.633Z,10.57
2024-05-09T09:08:18.196Z,11.95
2024-05-09T09:10:49.189Z,12.13
2024-05-09T09:15:50.655Z,12.77
2024-05-09T09:18:20.514Z,12.25
2024-05-09T09:20:50.302Z,12.82
2024-05-09T09:23:17.344Z,12.13
2024-05-09T09:25:47.328Z,12.25
2024-05-09T09:28:14.631Z,11.45
2024-05-09T09:30:45.072Z,12.25
2024-05-09T09:33:12.556Z,10.70
2024-05-09T09:35:44.921Z,12.05
2024-05-09T09:38:13.596Z,12.45
2024-05-09T09:40:48.332Z,11.88
2024-05-09T09:43:19.168Z,11.88
2024-05-09T09:45:49.220Z,12.27
2024-05-09T09:48:16.586Z,12.43
2024-05-09T09:50:49.918Z,12.68
2024-05-09T09:53:17.198Z,12.85
2024-05-09T09:55:47.096Z,11.65
2024-05-09T09:58:15.868Z,11.73
2024-05-09T10:00:45.938Z,12.20
2024-05-09T10:03:13.374Z,11.43
2024-05-09T10:05:46.147Z,10.25
2024-05-09T10:08:18.215Z,11.38
2024-05-09T10:10:48.786Z,10.02
2024-05-09T10:13:16.406Z,10.57
2024-05-09T10:15:47.894Z,10.75
2024-05-09T10:18:15.602Z,10.63
2024-05-09T10:20:45.801Z,10.70
2024-05-09T10:23:26.445Z,11.55
2024-05-09T10:26:00.259Z,11.13
2024-05-09T10:28:27.515Z,10.85
2024-05-09T10:31:09.459Z,10.27
2024-05-09T10:33:37.537Z,9.95
2024-05-09T10:36:12.939Z,10.15
2024-05-09T10:38:42.927Z,8.65
2024-05-09T10:41:13.015Z,9.50
2024-05-09T10:43:40.562Z,9.03
2024-05-09T10:46:10.750Z,10.20
2024-05-09T10:48:38.437Z,10.05
2024-05-09T10:51:08.387Z,9.65
2024-05-09T10:53:43.152Z,10.07
2024-05-09T10:56:13.350Z,10.02
2024-05-09T10:58:40.500Z,9.53
2024-05-09T11:01:10.843Z,9.80
2024-05-09T11:03:39.386Z,9.13
2024-05-09T11:06:09.999Z,9.60
2024-05-09T11:08:37.760Z,9.50
2024-05-09T11:11:10.628Z,9.65
2024-05-09T11:13:38.185Z,9.50
2024-05-09T11:16:09.331Z,9.60
2024-05-09T11:18:38.977Z,11.02
2024-05-09T11:21:14.455Z,10.20
2024-05-09T11:23:41.847Z,8.95
2024-05-09T11:26:15.281Z,9.75
2024-05-09T11:28:43.765Z,10.25
2024-05-09T11:31:13.538Z,10.55
2024-05-09T11:33:42.389Z,10.25
2024-05-09T11:36:12.258Z,11.40
2024-05-09T11:38:39.355Z,10.35
2024-05-09T11:41:09.212Z,9.75
2024-05-09T11:43:38.876Z,10.02
2024-05-09T11:46:08.583Z,10.38
2024-05-09T11:48:35.805Z,9.82
2024-05-09T11:51:05.559Z,10.55
2024-05-09T11:53:32.591Z,9.75
2024-05-09T11:56:02.443Z,10.55
2024-05-09T11:58:34.241Z,11.32
2024-05-09T12:01:06.757Z,10.27
2024-05-09T12:03:34.956Z,9.43
2024-05-09T12:06:04.963Z,9.93
2024-05-09T12:08:32.162Z,10.60
2024-05-09T12:11:01.914Z,10.38
2024-05-09T12:13:29.056Z,11.45
2024-05-09T12:15:58.865Z,10.70
2024-05-09T12:18:28.765Z,10.93
2024-05-09T12:20:58.543Z,11.10
2024-05-09T12:23:25.624Z,11.43
2024-05-09T12:25:55.577Z,10.30
2024-05-09T12:28:22.865Z,9.93
2024-05-09T12:30:52.636Z,10.52
2024-05-09T12:33:20.978Z,9.82
2024-05-09T12:35:53.404Z,10.18
2024-05-09T12:38:20.517Z,9.95
2024-05-09T12:40:50.570Z,9.80
2024-05-09T12:43:17.866Z,9.98
2024-05-09T12:45:47.630Z,11.35
2024-05-09T12:48:14.889Z,10.20
2024-05-09T12:50:44.881Z,10.43
2024-05-09T12:53:14.661Z,10.27
2024-05-09T12:55:53.120Z,11.00
2024-05-09T12:58:24.573Z,10.70
2024-05-09T13:00:54.558Z,11.27
2024-05-09T13:03:22.025Z,10.77
2024-05-09T13:05:52.293Z,10.73
2024-05-09T13:08:22.237Z,11.10
2024-05-09T13:10:51.991Z,11.60
2024-05-09T13:13:19.249Z,11.32
2024-05-09T13:15:49.197Z,10.55
2024-05-09T13:18:16.429Z,10.25
2024-05-09T13:20:46.721Z,10.20
2024-05-09T13:23:13.788Z,10.00
2024-05-09T13:25:46.551Z,10.45
2024-05-09T13:28:13.912Z,10.13
2024-05-09T13:30:43.950Z,10.27
2024-05-09T13:33:14.411Z,10.32
2024-05-09T13:38:15.530Z,10.73
2024-05-09T13:40:45.581Z,10.83
2024-05-09T13:43:15.756Z,10.45
2024-05-09T13:45:43.121Z,11.07
2024-05-09T13:48:13.199Z,11.70
2024-05-09T13:50:40.505Z,11.30
2024-05-09T13:53:10.156Z,11.10
2024-05-09T13:55:38.154Z,10.10
2024-05-09T13:58:10.657Z,9.45
2024-05-09T14:00:45.074Z,9.98
2024-05-09T14:03:20.019Z,9.07
2024-05-09T14:05:49.337Z,8.88
2024-05-09T14:08:20.070Z,9.40
2024-05-09T14:13:20.113Z,7.35
2024-05-09T14:15:47.588Z,7.25
2024-05-09T14:18:17.528Z,5.57
2024-05-09T14:20:47.266Z,5.65
2024-05-09T14:23:14.458Z,6.22
2024-05-09T14:25:45.514Z,6.03
2024-05-09T14:28:13.806Z,6.03
2024-05-09T14:30:46.218Z,6.78
2024-05-09T14:33:16.263Z,6.47
2024-05-09T14:35:45.962Z,5.72
2024-05-09T14:38:12.995Z,7.18
2024-05-09T14:40:44.138Z,6.50
2024-05-09T14:43:12.617Z,6.25
2024-05-09T14:45:43.590Z,6.90
2024-05-09T14:48:14.660Z,6.82
2024-05-09T14:50:44.679Z,6.35
2024-05-09T14:53:12.676Z,6.50
2024-05-09T14:55:43.925Z,7.00
2024-05-09T14:58:12.060Z,6.32
2024-05-09T15:00:47.652Z,6.18
2024-05-09T15:03:20.916Z,9.27
2024-05-09T15:05:52.332Z,10.73
2024-05-09T15:08:19.823Z,11.00
2024-05-09T15:10:50.568Z,12.05
2024-05-09T15:15:48.214Z,11.38
2024-05-09T15:18:15.698Z,11.50
2024-05-09T15:20:48.460Z,11.43
2024-05-09T15:23:15.786Z,12.18
2024-05-09T15:25:46.354Z,11.35
2024-05-09T15:28:13.523Z,12.48
2024-05-09T15:30:46.308Z,10.95
2024-05-09T15:33:14.466Z,11.15
2024-05-09T15:35:46.207Z,11.02
2024-05-09T15:38:16.289Z,11.45
2024-05-09T15:40:46.238Z,11.03
2024-05-09T15:43:13.731Z,10.90
2024-05-09T15:45:43.569Z,11.93
2024-05-09T15:48:11.377Z,12.02
2024-05-09T15:50:42.687Z,11.00
2024-05-09T15:53:11.253Z,11.63
2024-05-09T15:55:44.609Z,12.38
2024-05-09T15:58:12.226Z,12.25
2024-05-09T16:00:44.228Z,12.43
2024-05-09T16:03:14.244Z,12.02
2024-05-09T16:05:45.779Z,12.63
2024-05-09T16:08:14.372Z,11.88
2024-05-09T16:10:48.009Z,12.40
2024-05-09T16:13:16.092Z,11.98
2024-05-09T16:15:46.408Z,11.23
2024-05-09T16:18:13.726Z,11.80
2024-05-09T16:20:44.949Z,11.85
2024-05-09T16:23:13.612Z,12.00
2024-05-09T16:25:46.177Z,12.75
2024-05-09T16:28:16.760Z,12.80
2024-05-09T16:30:46.519Z,12.77
2024-05-09T16:33:15.753Z,12.30
2024-05-09T16:35:45.611Z,12.95
2024-05-09T16:38:13.330Z,12.32
2024-05-09T16:40:43.030Z,13.85
2024-05-09T16:43:10.872Z,12.65
2024-05-09T16:45:44.746Z,13.88
2024-05-09T16:48:12.992Z,13.82
2024-05-09T16:50:42.893Z,13.95
2024-05-09T16:53:09.951Z,15.02
2024-05-09T16:55:39.657Z,13.32
2024-05-09T16:58:08.340Z,15.45
2024-05-09T17:00:42.332Z,13.77
2024-05-09T17:03:15.156Z,14.38
2024-05-09T17:05:47.177Z,14.45
2024-05-09T17:08:15.147Z,15.02
2024-05-09T17:10:45.035Z,16.55
2024-05-09T17:13:16.205Z,16.88
2024-05-09T17:15:45.997Z,15.60
2024-05-09T17:18:15.909Z,17.02
2024-05-09T17:20:45.641Z,15.43
2024-05-09T17:23:13.971Z,15.43
2024-05-09T17:25:44.410Z,17.60
2024-05-09T17:28:12.003Z,17.77
2024-05-09T17:30:42.892Z,17.45
2024-05-09T17:33:11.397Z,17.17
2024-05-09T17:35:45.805Z,17.33
2024-05-09T17:38:13.176Z,17.73
2024-05-09T17:40:42.966Z,17.67
2024-05-09T17:43:10.978Z,17.15
2024-05-09T17:45:41.858Z,18.48
2024-05-09T17:48:10.708Z,17.98
2024-05-09T17:50:42.017Z,16.92
2024-05-09T17:53:12.012Z,17.65
2024-05-09T17:55:42.586Z,18.15
2024-05-09T17:58:10.254Z,16.90
2024-05-09T18:00:42.204Z,17.60
2024-05-09T18:03:11.809Z,17.73
2024-05-09T18:05:44.116Z,18.43
2024-05-09T18:08:14.608Z,17.83
2024-05-09T18:10:44.617Z,17.23
2024-05-09T18:13:12.689Z,17.67
2024-05-09T18:15:42.790Z,16.45
2024-05-09T18:18:12.039Z,16.38
2024-05-09T18:20:45.251Z,16.95
2024-05-09T18:23:17.684Z,17.50
2024-05-09T18:25:48.639Z,17.50
2024-05-09T18:28:16.710Z,17.85
2024-05-09T18:30:47.002Z,16.15
2024-05-09T18:33:14.329Z,17.20
2024-05-09T18:35:45.456Z,17.00
2024-05-09T18:38:15.551Z,17.10
2024-05-09T18:40:48.306Z,17.10
2024-05-09T18:43:16.747Z,17.45
2024-05-09T18:45:46.736Z,16.67
2024-05-09T18:48:14.365Z,16.80
2024-05-09T18:50:44.249Z,17.38
2024-05-09T18:53:12.637Z,17.25
2024-05-09T18:55:45.826Z,17.30
2024-05-09T18:58:13.038Z,16.25
2024-05-09T19:00:45.429Z,16.42
2024-05-09T19:03:15.674Z,17.25
2024-05-09T19:05:46.440Z,16.85
2024-05-09T19:08:14.631Z,16.58
2024-05-09T19:10:47.916Z,18.17
2024-05-09T19:13:15.563Z,16.70
2024-05-09T19:15:45.499Z,18.83
2024-05-09T19:18:13.363Z,17.55
2024-05-09T19:20:44.082Z,17.23
2024-05-09T19:23:11.622Z,16.70
2024-05-09T19:25:41.515Z,18.05
2024-05-09T19:28:11.451Z,18.02
2024-05-09T19:30:42.672Z,18.25
2024-05-09T19:33:11.892Z,16.70
2024-05-09T19:35:42.871Z,16.45
2024-05-09T19:38:10.557Z,17.25
2024-05-09T19:40:40.356Z,16.65
2024-05-09T19:43:07.689Z,17.35
2024-05-09T19:45:40.134Z,17.00
2024-05-09T19:48:07.908Z,17.58
2024-05-09T19:50:42.864Z,17.98
2024-05-09T19:53:12.209Z,18.48
2024-05-09T19:55:42.472Z,18.13
2024-05-09T19:58:10.194Z,18.43
2024-05-09T20:00:44.087Z,17.85
2024-05-09T20:03:12.633Z,18.45
2024-05-09T20:05:43.023Z,18.70
2024-05-09T20:08:10.192Z,17.77
2024-05-09T20:10:40.027Z,17.92
2024-05-09T20:13:08.188Z,19.00
2024-05-09T20:15:38.780Z,17.70
2024-05-09T20:18:08.848Z,19.17
2024-05-09T20:20:41.967Z,18.63
2024-05-09T20:23:11.457Z,19.42
2024-05-09T20:25:41.333Z,19.98
2024-05-09T20:28:08.819Z,18.88
2024-05-09T20:30:38.752Z,18.67
2024-05-09T20:33:09.702Z,18.52
2024-05-09T20:35:40.000Z,18.35
2024-05-09T20:38:07.143Z,19.08
2024-05-09T20:40:39.001Z,18.88
2024-05-09T20:43:08.052Z,18.70
2024-05-09T20:45:38.291Z,17.67
2024-05-09T20:48:09.077Z,18.60
2024-05-09T20:50:41.594Z,20.08
2024-05-09T20:53:10.771Z,20.38
2024-05-09T20:55:40.722Z,20.20
2024-05-09T20:58:08.397Z,20.30
2024-05-09T21:00:41.981Z,21.45
2024-05-09T21:03:16.419Z,19.52
2024-05-09T21:05:47.802Z,20.98
2024-05-09T21:08:15.399Z,20.60
2024-05-09T21:10:45.344Z,20.05
2024-05-09T21:13:12.539Z,19.92
2024-05-09T21:15:42.353Z,19.83
2024-05-09T21:18:09.602Z,20.33
2024-05-09T21:20:42.026Z,21.38
2024-05-09T21:23:09.089Z,21.35
2024-05-09T21:25:38.785Z,21.50
2024-05-09T21:28:06.007Z,21.98
2024-05-09T21:30:41.212Z,22.17
2024-05-09T21:33:11.781Z,22.33
2024-05-09T21:35:45.726Z,22.65
2024-05-09T21:38:13.922Z,23.90
2024-05-09T21:40:44.451Z,22.58
2024-05-09T21:43:11.990Z,21.45
2024-05-09T21:45:41.812Z,21.45
2024-05-09T21:48:09.038Z,22.52
2024-05-09T21:50:41.401Z,22.52
2024-05-09T21:53:12.836Z,22.75
2024-05-09T21:55:43.372Z,23.48
2024-05-09T21:58:11.778Z,23.35
2024-05-09T22:00:42.885Z,24.15
2024-05-09T22:05:43.771Z,22.90
2024-05-09T22:08:13.696Z,24.23
2024-05-09T22:10:43.522Z,22.80
2024-05-09T22:13:10.819Z,22.70
2024-05-09T22:15:41.111Z,23.70
2024-05-09T22:18:09.958Z,24.10
2024-05-09T22:20:44.644Z,26.50
2024-05-09T22:23:15.801Z,24.83
2024-05-09T22:25:45.684Z,25.30
2024-05-09T22:28:14.154Z,24.73
2024-05-09T22:30:45.989Z,24.98
2024-05-09T22:33:13.488Z,25.55
2024-05-09T22:35:43.394Z,24.85
2024-05-09T22:38:10.455Z,25.30
2024-05-09T22:40:47.986Z,25.27
2024-05-09T22:43:21.744Z,24.70
2024-05-09T22:45:54.313Z,25.40
2024-05-09T22:48:22.031Z,24.88
2024-05-09T22:50:51.920Z,25.35
2024-05-09T22:53:19.050Z,26.85
2024-05-09T22:55:51.348Z,25.00
2024-05-09T22:58:19.463Z,26.48
2024-05-09T23:00:49.340Z,23.83
2024-05-09T23:03:16.664Z,24.15
2024-05-09T23:05:46.463Z,24.40
2024-05-09T23:08:13.591Z,24.70
2024-05-09T23:10:43.403Z,23.92
2024-05-09T23:13:13.257Z,24.17
2024-05-09T23:15:42.946Z,23.98
2024-05-09T23:18:10.196Z,23.23
2024-05-09T23:20:40.559Z,25.17
2024-05-09T23:23:07.912Z,25.00
2024-05-09T23:25:37.923Z,24.48
2024-05-09T23:28:05.618Z,25.20
2024-05-09T23:30:40.427Z,25.40
2024-05-09T23:33:09.452Z,24.83
2024-05-09T23:35:39.308Z,24.95
2024-05-09T23:38:06.341Z,24.52
2024-05-09T23:40:39.443Z,24.20
2024-05-09T23:43:09.034Z,25.23
2024-05-09T23:45:42.153Z,25.52
2024-05-09T23:48:09.713Z,23.67
2024-05-09T23:50:40.607Z,24.38
2024-05-09T23:55:39.571Z,25.00
2024-05-09T23:58:06.960Z,24.75
